sensor_id;sensor_type;location;lat;lon;timestamp;temperature;humidity
34768;DHT22;21755;43.608;1.236;2023-02-01T00:01:51;7.20;99.90
34768;DHT22;21755;43.608;1.236;2023-02-01T00:04:17;7.20;99.90
34768;DHT22;21755;43.608;1.236;2023-02-01T00:06:43;7.20;99.90
34768;DHT22;21755;43.608;1.236;2023-02-01T00:09:09;7.20;99.90
34768;DHT22;21755;43.608;1.236;2023-02-01T00:11:35;7.20;99.90
34768;DHT22;21755;43.608;1.236;2023-02-01T00:14:00;7.20;99.90
34768;DHT22;21755;43.608;1.236;2023-02-01T00:16:29;7.20;99.90
34768;DHT22;21755;43.608;1.236;2023-02-01T00:19:06;7.30;99.90
34768;DHT22;21755;43.608;1.236;2023-02-01T00:21:33;7.30;99.90
34768;DHT22;21755;43.608;1.236;2023-02-01T00:23:59;7.30;99.90
34768;DHT22;21755;43.608;1.236;2023-02-01T00:26:37;7.30;99.90
34768;DHT22;21755;43.608;1.236;2023-02-01T00:29:06;7.30;99.90
34768;DHT22;21755;43.608;1.236;2023-02-01T00:31:32;7.30;99.90
34768;DHT22;21755;43.608;1.236;2023-02-01T00:33:58;7.30;99.90
34768;DHT22;21755;43.608;1.236;2023-02-01T00:36:24;7.30;99.90
34768;DHT22;21755;43.608;1.236;2023-02-01T00:38:50;7.40;99.90
34768;DHT22;21755;43.608;1.236;2023-02-01T00:41:19;7.40;99.90
34768;DHT22;21755;43.608;1.236;2023-02-01T00:43:46;7.50;99.90
34768;DHT22;21755;43.608;1.236;2023-02-01T00:46:13;7.50;99.90
34768;DHT22;21755;43.608;1.236;2023-02-01T00:48:39;7.50;99.90
34768;DHT22;21755;43.608;1.236;2023-02-01T00:51:08;7.40;99.90
34768;DHT22;21755;43.608;1.236;2023-02-01T00:53:35;7.40;99.90
34768;DHT22;21755;43.608;1.236;2023-02-01T00:56:01;7.50;99.90
34768;DHT22;21755;43.608;1.236;2023-02-01T00:58:27;7.50;99.90
34768;DHT22;21755;43.608;1.236;2023-02-01T01:01:09;7.50;99.90
34768;DHT22;21755;43.608;1.236;2023-02-01T01:03:41;7.50;99.90
34768;DHT22;21755;43.608;1.236;2023-02-01T01:06:28;7.50;99.90
34768;DHT22;21755;43.608;1.236;2023-02-01T01:08:58;7.50;99.90
34768;DHT22;21755;43.608;1.236;2023-02-01T01:11:27;7.50;99.90
34768;DHT22;21755;43.608;1.236;2023-02-01T01:13:54;7.50;99.90
34768;DHT22;21755;43.608;1.236;2023-02-01T01:16:21;7.50;99.90
34768;DHT22;21755;43.608;1.236;2023-02-01T01:18:48;7.50;99.90
34768;DHT22;21755;43.608;1.236;2023-02-01T01:21:15;7.50;99.90
34768;DHT22;21755;43.608;1.236;2023-02-01T01:23:41;7.50;99.90
34768;DHT22;21755;43.608;1.236;2023-02-01T01:26:16;7.50;99.90
34768;DHT22;21755;43.608;1.236;2023-02-01T01:28:43;7.50;99.90
34768;DHT22;21755;43.608;1.236;2023-02-01T01:31:11;7.50;99.90
34768;DHT22;21755;43.608;1.236;2023-02-01T01:33:37;7.50;99.90
34768;DHT22;21755;43.608;1.236;2023-02-01T01:36:08;7.50;99.90
34768;DHT22;21755;43.608;1.236;2023-02-01T01:38:37;7.50;99.90
34768;DHT22;21755;43.608;1.236;2023-02-01T01:41:03;7.50;99.90
34768;DHT22;21755;43.608;1.236;2023-02-01T01:43:51;7.50;99.90
34768;DHT22;21755;43.608;1.236;2023-02-01T01:46:24;7.50;99.90
34768;DHT22;21755;43.608;1.236;2023-02-01T01:49:05;7.50;99.90
34768;DHT22;21755;43.608;1.236;2023-02-01T01:51:38;7.50;99.90
34768;DHT22;21755;43.608;1.236;2023-02-01T01:54:14;7.50;99.90
34768;DHT22;21755;43.608;1.236;2023-02-01T01:56:43;7.50;99.90
34768;DHT22;21755;43.608;1.236;2023-02-01T01:59:12;7.50;99.90
34768;DHT22;21755;43.608;1.236;2023-02-01T02:01:38;7.50;99.90
34768;DHT22;21755;43.608;1.236;2023-02-01T02:04:04;7.50;99.90
34768;DHT22;21755;43.608;1.236;2023-02-01T02:09:15;7.50;99.90
34768;DHT22;21755;43.608;1.236;2023-02-01T02:11:42;7.50;99.90
34768;DHT22;21755;43.608;1.236;2023-02-01T02:14:11;7.50;99.90
34768;DHT22;21755;43.608;1.236;2023-02-01T02:17:14;7.50;99.90
34768;DHT22;21755;43.608;1.236;2023-02-01T02:39:38;7.50;99.90
34768;DHT22;21755;43.608;1.236;2023-02-01T02:42:29;7.50;99.90
34768;DHT22;21755;43.608;1.236;2023-02-01T02:48:28;7.50;99.90
34768;DHT22;21755;43.608;1.236;2023-02-01T02:51:10;7.50;99.90
34768;DHT22;21755;43.608;1.236;2023-02-01T02:54:13;7.40;99.90
34768;DHT22;21755;43.608;1.236;2023-02-01T02:57:02;7.40;99.90
34768;DHT22;21755;43.608;1.236;2023-02-01T02:59:47;7.40;99.90
34768;DHT22;21755;43.608;1.236;2023-02-01T03:02:33;7.40;99.90
34768;DHT22;21755;43.608;1.236;2023-02-01T03:05:18;7.40;99.90
34768;DHT22;21755;43.608;1.236;2023-02-01T03:10:39;7.30;99.90
34768;DHT22;21755;43.608;1.236;2023-02-01T03:13:12;7.30;99.90
34768;DHT22;21755;43.608;1.236;2023-02-01T03:15:45;7.30;99.90
34768;DHT22;21755;43.608;1.236;2023-02-01T03:18:23;7.30;99.90
34768;DHT22;21755;43.608;1.236;2023-02-01T03:20:52;7.30;99.90
34768;DHT22;21755;43.608;1.236;2023-02-01T03:23:22;7.30;99.90
34768;DHT22;21755;43.608;1.236;2023-02-01T03:25:50;7.30;99.90
34768;DHT22;21755;43.608;1.236;2023-02-01T03:28:18;7.30;99.90
34768;DHT22;21755;43.608;1.236;2023-02-01T03:30:48;7.30;99.90
34768;DHT22;21755;43.608;1.236;2023-02-01T03:33:20;7.30;99.90
34768;DHT22;21755;43.608;1.236;2023-02-01T03:39:05;7.30;99.90
34768;DHT22;21755;43.608;1.236;2023-02-01T03:45:16;7.30;99.90
34768;DHT22;21755;43.608;1.236;2023-02-01T03:47:24;7.30;99.90
34768;DHT22;21755;43.608;1.236;2023-02-01T03:49:55;7.30;99.90
34768;DHT22;21755;43.608;1.236;2023-02-01T03:52:30;7.30;99.90
34768;DHT22;21755;43.608;1.236;2023-02-01T03:54:57;7.30;99.90
34768;DHT22;21755;43.608;1.236;2023-02-01T03:57:28;7.30;99.90
34768;DHT22;21755;43.608;1.236;2023-02-01T04:00:05;7.30;99.90
34768;DHT22;21755;43.608;1.236;2023-02-01T04:02:31;7.30;99.90
34768;DHT22;21755;43.608;1.236;2023-02-01T04:04:57;7.30;99.90
34768;DHT22;21755;43.608;1.236;2023-02-01T04:07:22;7.20;99.90
34768;DHT22;21755;43.608;1.236;2023-02-01T04:09:48;7.30;99.90
34768;DHT22;21755;43.608;1.236;2023-02-01T04:12:14;7.20;99.90
34768;DHT22;21755;43.608;1.236;2023-02-01T04:14:40;7.20;99.90
34768;DHT22;21755;43.608;1.236;2023-02-01T04:17:06;7.20;99.90
34768;DHT22;21755;43.608;1.236;2023-02-01T04:19:32;7.20;99.90
34768;DHT22;21755;43.608;1.236;2023-02-01T04:21:57;7.20;99.90
34768;DHT22;21755;43.608;1.236;2023-02-01T04:24:23;7.20;99.90
34768;DHT22;21755;43.608;1.236;2023-02-01T04:26:49;7.20;99.90
34768;DHT22;21755;43.608;1.236;2023-02-01T04:29:15;7.20;99.90
34768;DHT22;21755;43.608;1.236;2023-02-01T04:31:41;7.10;99.90
34768;DHT22;21755;43.608;1.236;2023-02-01T04:34:07;7.20;99.90
34768;DHT22;21755;43.608;1.236;2023-02-01T04:36:33;7.10;99.90
34768;DHT22;21755;43.608;1.236;2023-02-01T04:38:58;7.10;99.90
34768;DHT22;21755;43.608;1.236;2023-02-01T04:41:24;7.10;99.90
34768;DHT22;21755;43.608;1.236;2023-02-01T04:43:51;7.10;99.90
34768;DHT22;21755;43.608;1.236;2023-02-01T04:46:18;7.10;99.90
34768;DHT22;21755;43.608;1.236;2023-02-01T04:48:44;7.10;99.90
34768;DHT22;21755;43.608;1.236;2023-02-01T04:51:10;7.10;99.90
34768;DHT22;21755;43.608;1.236;2023-02-01T04:53:36;7.10;99.90
34768;DHT22;21755;43.608;1.236;2023-02-01T04:56:02;7.10;99.90
34768;DHT22;21755;43.608;1.236;2023-02-01T04:58:28;7.10;99.90
34768;DHT22;21755;43.608;1.236;2023-02-01T05:00:54;7.10;99.90
34768;DHT22;21755;43.608;1.236;2023-02-01T05:03:19;7.10;99.90
34768;DHT22;21755;43.608;1.236;2023-02-01T05:05:47;7.10;99.90
34768;DHT22;21755;43.608;1.236;2023-02-01T05:08:14;7.00;99.90
34768;DHT22;21755;43.608;1.236;2023-02-01T05:10:40;7.00;99.90
34768;DHT22;21755;43.608;1.236;2023-02-01T05:13:07;7.00;99.90
34768;DHT22;21755;43.608;1.236;2023-02-01T05:15:51;7.00;99.90
34768;DHT22;21755;43.608;1.236;2023-02-01T05:18:17;7.10;99.90
34768;DHT22;21755;43.608;1.236;2023-02-01T05:20:43;7.10;99.90
34768;DHT22;21755;43.608;1.236;2023-02-01T05:23:09;7.10;99.90
34768;DHT22;21755;43.608;1.236;2023-02-01T05:25:34;7.10;99.90
34768;DHT22;21755;43.608;1.236;2023-02-01T05:28:00;7.00;99.90
34768;DHT22;21755;43.608;1.236;2023-02-01T05:30:26;7.10;99.90
34768;DHT22;21755;43.608;1.236;2023-02-01T05:32:52;7.10;99.90
34768;DHT22;21755;43.608;1.236;2023-02-01T05:35:19;7.10;99.90
34768;DHT22;21755;43.608;1.236;2023-02-01T05:37:45;7.10;99.90
34768;DHT22;21755;43.608;1.236;2023-02-01T05:40:12;7.10;99.90
34768;DHT22;21755;43.608;1.236;2023-02-01T05:42:37;7.10;99.90
34768;DHT22;21755;43.608;1.236;2023-02-01T05:45:04;7.10;99.90
34768;DHT22;21755;43.608;1.236;2023-02-01T05:47:31;7.10;99.90
34768;DHT22;21755;43.608;1.236;2023-02-01T05:49:57;7.10;99.90
34768;DHT22;21755;43.608;1.236;2023-02-01T05:52:22;7.10;99.90
34768;DHT22;21755;43.608;1.236;2023-02-01T05:54:48;7.00;99.90
34768;DHT22;21755;43.608;1.236;2023-02-01T05:57:15;7.10;99.90
34768;DHT22;21755;43.608;1.236;2023-02-01T05:59:41;7.10;99.90
34768;DHT22;21755;43.608;1.236;2023-02-01T06:02:11;7.10;99.90
34768;DHT22;21755;43.608;1.236;2023-02-01T06:04:37;7.10;99.90
34768;DHT22;21755;43.608;1.236;2023-02-01T06:07:03;7.10;99.90
34768;DHT22;21755;43.608;1.236;2023-02-01T06:09:29;7.10;99.90
34768;DHT22;21755;43.608;1.236;2023-02-01T06:11:55;7.10;99.90
34768;DHT22;21755;43.608;1.236;2023-02-01T06:14:21;7.20;99.90
34768;DHT22;21755;43.608;1.236;2023-02-01T06:16:47;7.20;99.90
34768;DHT22;21755;43.608;1.236;2023-02-01T06:19:13;7.20;99.90
34768;DHT22;21755;43.608;1.236;2023-02-01T06:21:39;7.20;99.90
34768;DHT22;21755;43.608;1.236;2023-02-01T06:24:05;7.20;99.90
34768;DHT22;21755;43.608;1.236;2023-02-01T06:26:31;7.20;99.90
34768;DHT22;21755;43.608;1.236;2023-02-01T06:28:58;7.10;99.90
34768;DHT22;21755;43.608;1.236;2023-02-01T06:31:24;7.10;99.90
34768;DHT22;21755;43.608;1.236;2023-02-01T06:33:51;7.10;99.90
34768;DHT22;21755;43.608;1.236;2023-02-01T06:36:17;7.10;99.90
34768;DHT22;21755;43.608;1.236;2023-02-01T06:38:46;7.10;99.90
34768;DHT22;21755;43.608;1.236;2023-02-01T06:41:12;7.10;99.90
34768;DHT22;21755;43.608;1.236;2023-02-01T06:43:38;7.10;99.90
34768;DHT22;21755;43.608;1.236;2023-02-01T06:46:06;7.10;99.90
34768;DHT22;21755;43.608;1.236;2023-02-01T06:48:33;7.10;99.90
34768;DHT22;21755;43.608;1.236;2023-02-01T06:50:59;7.10;99.90
34768;DHT22;21755;43.608;1.236;2023-02-01T06:53:26;7.10;99.90
34768;DHT22;21755;43.608;1.236;2023-02-01T06:56:02;7.10;99.90
34768;DHT22;21755;43.608;1.236;2023-02-01T06:58:30;7.10;99.90
34768;DHT22;21755;43.608;1.236;2023-02-01T07:00:57;7.10;99.90
34768;DHT22;21755;43.608;1.236;2023-02-01T07:03:23;7.10;99.90
34768;DHT22;21755;43.608;1.236;2023-02-01T07:05:49;7.00;99.90
34768;DHT22;21755;43.608;1.236;2023-02-01T07:08:15;7.00;99.90
34768;DHT22;21755;43.608;1.236;2023-02-01T07:10:41;7.00;99.90
34768;DHT22;21755;43.608;1.236;2023-02-01T07:13:06;7.00;99.90
34768;DHT22;21755;43.608;1.236;2023-02-01T07:15:32;7.00;99.90
34768;DHT22;21755;43.608;1.236;2023-02-01T07:17:58;7.10;99.90
34768;DHT22;21755;43.608;1.236;2023-02-01T07:20:24;7.00;99.90
34768;DHT22;21755;43.608;1.236;2023-02-01T07:22:55;7.00;99.90
34768;DHT22;21755;43.608;1.236;2023-02-01T07:25:22;7.00;99.90
34768;DHT22;21755;43.608;1.236;2023-02-01T07:27:48;7.00;99.90
34768;DHT22;21755;43.608;1.236;2023-02-01T07:30:14;7.00;99.90
34768;DHT22;21755;43.608;1.236;2023-02-01T07:32:40;7.10;99.90
34768;DHT22;21755;43.608;1.236;2023-02-01T07:35:06;7.00;99.90
34768;DHT22;21755;43.608;1.236;2023-02-01T07:37:33;7.10;99.90
34768;DHT22;21755;43.608;1.236;2023-02-01T07:39:58;7.10;99.90
34768;DHT22;21755;43.608;1.236;2023-02-01T07:42:24;7.10;99.90
34768;DHT22;21755;43.608;1.236;2023-02-01T07:44:50;7.00;99.90
34768;DHT22;21755;43.608;1.236;2023-02-01T07:47:16;7.00;99.90
34768;DHT22;21755;43.608;1.236;2023-02-01T07:49:42;7.00;99.90
34768;DHT22;21755;43.608;1.236;2023-02-01T07:52:08;7.40;99.90
34768;DHT22;21755;43.608;1.236;2023-02-01T07:54:34;7.60;99.90
34768;DHT22;21755;43.608;1.236;2023-02-01T07:57:01;7.60;99.90
34768;DHT22;21755;43.608;1.236;2023-02-01T07:59:27;7.30;99.90
34768;DHT22;21755;43.608;1.236;2023-02-01T08:01:53;7.20;99.90
34768;DHT22;21755;43.608;1.236;2023-02-01T08:04:19;7.10;99.90
34768;DHT22;21755;43.608;1.236;2023-02-01T08:06:45;7.10;99.90
34768;DHT22;21755;43.608;1.236;2023-02-01T08:09:11;7.00;99.90
34768;DHT22;21755;43.608;1.236;2023-02-01T08:11:37;6.90;99.90
34768;DHT22;21755;43.608;1.236;2023-02-01T08:14:04;7.00;99.90
34768;DHT22;21755;43.608;1.236;2023-02-01T08:16:30;7.00;99.90
34768;DHT22;21755;43.608;1.236;2023-02-01T08:18:56;7.00;99.90
34768;DHT22;21755;43.608;1.236;2023-02-01T08:21:25;7.00;99.90
34768;DHT22;21755;43.608;1.236;2023-02-01T08:23:52;7.00;99.90
34768;DHT22;21755;43.608;1.236;2023-02-01T08:26:20;7.00;99.90
34768;DHT22;21755;43.608;1.236;2023-02-01T08:28:51;7.00;99.90
34768;DHT22;21755;43.608;1.236;2023-02-01T08:31:19;7.00;99.90
34768;DHT22;21755;43.608;1.236;2023-02-01T08:33:52;6.90;99.90
34768;DHT22;21755;43.608;1.236;2023-02-01T08:36:20;6.90;99.90
34768;DHT22;21755;43.608;1.236;2023-02-01T08:38:46;7.00;99.90
34768;DHT22;21755;43.608;1.236;2023-02-01T08:41:14;6.90;99.90
34768;DHT22;21755;43.608;1.236;2023-02-01T08:43:41;6.90;99.90
34768;DHT22;21755;43.608;1.236;2023-02-01T08:46:08;6.90;99.90
34768;DHT22;21755;43.608;1.236;2023-02-01T08:48:35;7.00;99.90
34768;DHT22;21755;43.608;1.236;2023-02-01T08:51:06;7.00;99.90
34768;DHT22;21755;43.608;1.236;2023-02-01T08:53:33;7.00;99.90
34768;DHT22;21755;43.608;1.236;2023-02-01T08:55:59;7.00;99.90
34768;DHT22;21755;43.608;1.236;2023-02-01T08:58:25;7.00;99.90
34768;DHT22;21755;43.608;1.236;2023-02-01T09:00:50;7.10;99.90
34768;DHT22;21755;43.608;1.236;2023-02-01T09:03:17;7.00;99.90
34768;DHT22;21755;43.608;1.236;2023-02-01T09:05:43;7.00;99.90
34768;DHT22;21755;43.608;1.236;2023-02-01T09:08:11;6.90;99.90
34768;DHT22;21755;43.608;1.236;2023-02-01T09:10:40;6.90;99.90
34768;DHT22;21755;43.608;1.236;2023-02-01T09:13:07;6.90;99.90
34768;DHT22;21755;43.608;1.236;2023-02-01T09:15:33;6.80;99.90
34768;DHT22;21755;43.608;1.236;2023-02-01T09:17:59;6.70;99.90
34768;DHT22;21755;43.608;1.236;2023-02-01T09:20:26;6.70;99.90
34768;DHT22;21755;43.608;1.236;2023-02-01T09:22:52;6.80;99.90
34768;DHT22;21755;43.608;1.236;2023-02-01T09:25:18;6.80;99.90
34768;DHT22;21755;43.608;1.236;2023-02-01T09:27:44;6.90;99.90
34768;DHT22;21755;43.608;1.236;2023-02-01T09:30:10;6.80;99.90
34768;DHT22;21755;43.608;1.236;2023-02-01T09:32:36;6.80;99.90
34768;DHT22;21755;43.608;1.236;2023-02-01T09:35:02;6.80;99.90
34768;DHT22;21755;43.608;1.236;2023-02-01T09:37:28;6.80;99.90
34768;DHT22;21755;43.608;1.236;2023-02-01T09:39:54;6.90;99.90
34768;DHT22;21755;43.608;1.236;2023-02-01T09:45:19;7.10;99.90
34768;DHT22;21755;43.608;1.236;2023-02-01T09:47:54;7.10;99.90
34768;DHT22;21755;43.608;1.236;2023-02-01T09:50:28;7.20;99.90
34768;DHT22;21755;43.608;1.236;2023-02-01T09:53:04;7.20;99.90
34768;DHT22;21755;43.608;1.236;2023-02-01T09:55:43;7.20;99.90
34768;DHT22;21755;43.608;1.236;2023-02-01T09:58:32;7.20;99.90
34768;DHT22;21755;43.608;1.236;2023-02-01T10:01:01;7.20;99.90
34768;DHT22;21755;43.608;1.236;2023-02-01T10:03:30;7.20;99.90
34768;DHT22;21755;43.608;1.236;2023-02-01T10:23:15;7.40;99.90
34768;DHT22;21755;43.608;1.236;2023-02-01T10:25:56;7.50;99.90
34768;DHT22;21755;43.608;1.236;2023-02-01T10:28:25;7.60;99.90
34768;DHT22;21755;43.608;1.236;2023-02-01T10:30:54;7.80;99.90
34768;DHT22;21755;43.608;1.236;2023-02-01T10:33:45;8.00;99.90
34768;DHT22;21755;43.608;1.236;2023-02-01T10:36:28;8.20;99.90
34768;DHT22;21755;43.608;1.236;2023-02-01T10:38:57;8.50;99.90
34768;DHT22;21755;43.608;1.236;2023-02-01T10:41:27;8.60;99.90
34768;DHT22;21755;43.608;1.236;2023-02-01T10:43:57;8.40;99.90
34768;DHT22;21755;43.608;1.236;2023-02-01T10:46:24;8.30;99.90
34768;DHT22;21755;43.608;1.236;2023-02-01T10:48:53;8.40;99.90
34768;DHT22;21755;43.608;1.236;2023-02-01T10:51:47;8.30;99.90
34768;DHT22;21755;43.608;1.236;2023-02-01T10:54:19;8.30;99.90
34768;DHT22;21755;43.608;1.236;2023-02-01T10:56:47;8.20;99.90
34768;DHT22;21755;43.608;1.236;2023-02-01T10:59:19;8.20;99.90
34768;DHT22;21755;43.608;1.236;2023-02-01T11:01:47;8.40;99.90
34768;DHT22;21755;43.608;1.236;2023-02-01T11:04:19;8.60;99.90
34768;DHT22;21755;43.608;1.236;2023-02-01T11:07:36;8.90;99.90
34768;DHT22;21755;43.608;1.236;2023-02-01T11:09:41;9.00;99.90
34768;DHT22;21755;43.608;1.236;2023-02-01T11:14:48;9.20;99.90
34768;DHT22;21755;43.608;1.236;2023-02-01T11:19:45;9.20;99.90
34768;DHT22;21755;43.608;1.236;2023-02-01T11:22:12;9.10;99.90
34768;DHT22;21755;43.608;1.236;2023-02-01T11:24:39;9.00;99.90
34768;DHT22;21755;43.608;1.236;2023-02-01T11:27:19;8.80;99.90
34768;DHT22;21755;43.608;1.236;2023-02-01T11:29:50;8.80;99.90
34768;DHT22;21755;43.608;1.236;2023-02-01T11:32:19;8.80;99.90
34768;DHT22;21755;43.608;1.236;2023-02-01T11:35:13;8.70;99.90
34768;DHT22;21755;43.608;1.236;2023-02-01T11:37:42;8.80;99.90
34768;DHT22;21755;43.608;1.236;2023-02-01T11:40:38;8.90;99.90
34768;DHT22;21755;43.608;1.236;2023-02-01T11:45:35;9.10;99.90
34768;DHT22;21755;43.608;1.236;2023-02-01T11:48:08;9.10;99.90
34768;DHT22;21755;43.608;1.236;2023-02-01T11:51:11;9.10;99.90
34768;DHT22;21755;43.608;1.236;2023-02-01T11:54:02;9.00;99.90
34768;DHT22;21755;43.608;1.236;2023-02-01T11:59:57;8.90;99.90
34768;DHT22;21755;43.608;1.236;2023-02-01T12:08:26;9.20;99.90
34768;DHT22;21755;43.608;1.236;2023-02-01T12:13:53;9.40;99.90
34768;DHT22;21755;43.608;1.236;2023-02-01T12:16:49;9.30;99.90
34768;DHT22;21755;43.608;1.236;2023-02-01T12:24:28;9.40;99.90
34768;DHT22;21755;43.608;1.236;2023-02-01T12:29:59;9.40;99.90
34768;DHT22;21755;43.608;1.236;2023-02-01T12:43:31;9.50;99.90
34768;DHT22;21755;43.608;1.236;2023-02-01T12:46:08;9.50;99.90
34768;DHT22;21755;43.608;1.236;2023-02-01T12:51:28;9.40;99.90
34768;DHT22;21755;43.608;1.236;2023-02-01T12:57:35;9.40;99.90
34768;DHT22;21755;43.608;1.236;2023-02-01T12:59:51;9.50;99.90
34768;DHT22;21755;43.608;1.236;2023-02-01T13:02:23;9.40;99.90
34768;DHT22;21755;43.608;1.236;2023-02-01T13:05:17;9.50;99.90
34768;DHT22;21755;43.608;1.236;2023-02-01T13:07:53;9.50;99.90
34768;DHT22;21755;43.608;1.236;2023-02-01T13:10:30;9.40;99.90
34768;DHT22;21755;43.608;1.236;2023-02-01T13:13:36;9.40;99.90
34768;DHT22;21755;43.608;1.236;2023-02-01T13:18:51;9.40;99.90
34768;DHT22;21755;43.608;1.236;2023-02-01T13:21:26;9.50;99.90
34768;DHT22;21755;43.608;1.236;2023-02-01T13:23:53;9.50;99.90
34768;DHT22;21755;43.608;1.236;2023-02-01T13:26:19;9.50;99.90
34768;DHT22;21755;43.608;1.236;2023-02-01T13:28:58;9.60;99.90
34768;DHT22;21755;43.608;1.236;2023-02-01T13:40:05;9.40;99.90
34768;DHT22;21755;43.608;1.236;2023-02-01T13:43:01;9.40;99.90
34768;DHT22;21755;43.608;1.236;2023-02-01T13:45:33;9.30;99.90
34768;DHT22;21755;43.608;1.236;2023-02-01T13:48:03;9.30;99.90
34768;DHT22;21755;43.608;1.236;2023-02-01T13:50:32;9.30;99.90
34768;DHT22;21755;43.608;1.236;2023-02-01T13:53:11;9.20;99.90
34768;DHT22;21755;43.608;1.236;2023-02-01T13:58:43;9.20;99.90
34768;DHT22;21755;43.608;1.236;2023-02-01T14:03:52;9.00;99.90
34768;DHT22;21755;43.608;1.236;2023-02-01T14:09:18;8.90;99.90
34768;DHT22;21755;43.608;1.236;2023-02-01T14:11:52;9.00;99.90
34768;DHT22;21755;43.608;1.236;2023-02-01T14:19:25;9.00;99.90
34768;DHT22;21755;43.608;1.236;2023-02-01T14:21:56;8.80;99.90
34768;DHT22;21755;43.608;1.236;2023-02-01T14:24:28;8.90;99.90
34768;DHT22;21755;43.608;1.236;2023-02-01T14:29:43;8.90;99.90
34768;DHT22;21755;43.608;1.236;2023-02-01T14:37:44;8.90;99.90
34768;DHT22;21755;43.608;1.236;2023-02-01T15:04:06;9.00;99.90
34768;DHT22;21755;43.608;1.236;2023-02-01T15:06:46;9.10;99.90
34768;DHT22;21755;43.608;1.236;2023-02-01T15:09:29;9.10;99.90
34768;DHT22;21755;43.608;1.236;2023-02-01T15:12:19;9.00;99.90
34768;DHT22;21755;43.608;1.236;2023-02-01T15:15:13;9.00;99.90
34768;DHT22;21755;43.608;1.236;2023-02-01T15:17:40;8.90;99.90
34768;DHT22;21755;43.608;1.236;2023-02-01T15:20:17;8.90;99.90
34768;DHT22;21755;43.608;1.236;2023-02-01T15:22:53;8.90;99.90
34768;DHT22;21755;43.608;1.236;2023-02-01T15:25:22;8.90;99.90
34768;DHT22;21755;43.608;1.236;2023-02-01T15:27:48;8.90;99.90
34768;DHT22;21755;43.608;1.236;2023-02-01T15:30:20;8.90;99.90
34768;DHT22;21755;43.608;1.236;2023-02-01T15:32:47;8.80;99.90
34768;DHT22;21755;43.608;1.236;2023-02-01T15:41:12;8.80;99.90
34768;DHT22;21755;43.608;1.236;2023-02-01T15:43:44;8.80;99.90
34768;DHT22;21755;43.608;1.236;2023-02-01T15:46:21;8.80;99.90
34768;DHT22;21755;43.608;1.236;2023-02-01T15:48:52;8.80;99.90
34768;DHT22;21755;43.608;1.236;2023-02-01T15:51:25;8.80;99.90
34768;DHT22;21755;43.608;1.236;2023-02-01T15:53:56;8.80;99.90
34768;DHT22;21755;43.608;1.236;2023-02-01T15:56:25;8.80;99.90
34768;DHT22;21755;43.608;1.236;2023-02-01T15:58:55;8.70;99.90
34768;DHT22;21755;43.608;1.236;2023-02-01T16:01:22;8.70;99.90
34768;DHT22;21755;43.608;1.236;2023-02-01T16:03:49;8.80;99.90
34768;DHT22;21755;43.608;1.236;2023-02-01T16:08:54;8.70;99.90
34768;DHT22;21755;43.608;1.236;2023-02-01T16:13:49;8.60;99.90
34768;DHT22;21755;43.608;1.236;2023-02-01T16:16:15;8.60;99.90
34768;DHT22;21755;43.608;1.236;2023-02-01T16:18:41;8.60;99.90
34768;DHT22;21755;43.608;1.236;2023-02-01T16:21:08;8.60;99.90
34768;DHT22;21755;43.608;1.236;2023-02-01T16:23:35;8.60;99.90
34768;DHT22;21755;43.608;1.236;2023-02-01T16:26:01;8.60;99.90
34768;DHT22;21755;43.608;1.236;2023-02-01T16:28:27;8.60;99.90
34768;DHT22;21755;43.608;1.236;2023-02-01T16:30:53;8.60;99.90
34768;DHT22;21755;43.608;1.236;2023-02-01T16:33:20;8.60;99.90
34768;DHT22;21755;43.608;1.236;2023-02-01T16:35:48;8.60;99.90
34768;DHT22;21755;43.608;1.236;2023-02-01T16:38:16;8.50;99.90
34768;DHT22;21755;43.608;1.236;2023-02-01T16:40:45;8.60;99.90
34768;DHT22;21755;43.608;1.236;2023-02-01T16:43:16;8.50;99.90
34768;DHT22;21755;43.608;1.236;2023-02-01T16:45:44;8.50;99.90
34768;DHT22;21755;43.608;1.236;2023-02-01T16:48:24;8.50;99.90
34768;DHT22;21755;43.608;1.236;2023-02-01T16:50:56;8.40;99.90
34768;DHT22;21755;43.608;1.236;2023-02-01T16:53:24;8.40;99.90
34768;DHT22;21755;43.608;1.236;2023-02-01T16:55:50;8.40;99.90
34768;DHT22;21755;43.608;1.236;2023-02-01T16:58:18;8.30;99.90
34768;DHT22;21755;43.608;1.236;2023-02-01T17:00:45;8.30;99.90
34768;DHT22;21755;43.608;1.236;2023-02-01T17:03:12;8.30;99.90
34768;DHT22;21755;43.608;1.236;2023-02-01T17:05:53;8.20;99.90
34768;DHT22;21755;43.608;1.236;2023-02-01T17:08:32;8.20;99.90
34768;DHT22;21755;43.608;1.236;2023-02-01T17:10:58;8.20;99.90
34768;DHT22;21755;43.608;1.236;2023-02-01T17:13:24;8.10;99.90
34768;DHT22;21755;43.608;1.236;2023-02-01T17:15:57;8.00;99.90
34768;DHT22;21755;43.608;1.236;2023-02-01T17:18:24;8.00;99.90
34768;DHT22;21755;43.608;1.236;2023-02-01T17:20:50;7.90;99.90
34768;DHT22;21755;43.608;1.236;2023-02-01T17:23:19;7.90;99.90
34768;DHT22;21755;43.608;1.236;2023-02-01T17:25:45;7.70;99.90
34768;DHT22;21755;43.608;1.236;2023-02-01T17:28:12;7.70;99.90
34768;DHT22;21755;43.608;1.236;2023-02-01T17:30:39;7.60;99.90
34768;DHT22;21755;43.608;1.236;2023-02-01T17:33:25;7.50;99.90
34768;DHT22;21755;43.608;1.236;2023-02-01T17:35:53;7.50;99.90
34768;DHT22;21755;43.608;1.236;2023-02-01T17:38:20;7.40;99.90
34768;DHT22;21755;43.608;1.236;2023-02-01T17:40:46;7.30;99.90
34768;DHT22;21755;43.608;1.236;2023-02-01T17:43:14;7.20;99.90
34768;DHT22;21755;43.608;1.236;2023-02-01T17:48:16;7.20;99.90
34768;DHT22;21755;43.608;1.236;2023-02-01T17:50:44;7.10;99.90
34768;DHT22;21755;43.608;1.236;2023-02-01T17:53:13;7.00;99.90
34768;DHT22;21755;43.608;1.236;2023-02-01T17:55:43;6.80;99.90
34768;DHT22;21755;43.608;1.236;2023-02-01T17:58:11;6.60;99.90
34768;DHT22;21755;43.608;1.236;2023-02-01T18:00:39;6.60;99.90
34768;DHT22;21755;43.608;1.236;2023-02-01T18:03:05;6.50;99.90
34768;DHT22;21755;43.608;1.236;2023-02-01T18:05:41;6.50;99.90
34768;DHT22;21755;43.608;1.236;2023-02-01T18:08:09;6.50;99.90
34768;DHT22;21755;43.608;1.236;2023-02-01T18:10:35;6.40;99.90
34768;DHT22;21755;43.608;1.236;2023-02-01T18:13:02;6.30;99.90
34768;DHT22;21755;43.608;1.236;2023-02-01T18:15:29;6.20;99.90
34768;DHT22;21755;43.608;1.236;2023-02-01T18:17:55;6.20;99.90
34768;DHT22;21755;43.608;1.236;2023-02-01T18:20:23;6.10;99.90
34768;DHT22;21755;43.608;1.236;2023-02-01T18:22:49;6.10;99.90
34768;DHT22;21755;43.608;1.236;2023-02-01T18:25:24;6.00;99.90
34768;DHT22;21755;43.608;1.236;2023-02-01T18:27:53;5.90;99.90
34768;DHT22;21755;43.608;1.236;2023-02-01T18:30:21;5.80;99.90
34768;DHT22;21755;43.608;1.236;2023-02-01T18:32:48;5.80;99.90
34768;DHT22;21755;43.608;1.236;2023-02-01T18:35:23;5.80;99.90
34768;DHT22;21755;43.608;1.236;2023-02-01T18:37:49;5.80;99.90
34768;DHT22;21755;43.608;1.236;2023-02-01T18:40:21;5.70;99.90
34768;DHT22;21755;43.608;1.236;2023-02-01T18:42:47;5.70;99.90
34768;DHT22;21755;43.608;1.236;2023-02-01T18:47:46;5.50;99.90
34768;DHT22;21755;43.608;1.236;2023-02-01T18:50:12;5.50;99.90
34768;DHT22;21755;43.608;1.236;2023-02-01T18:52:37;5.50;99.90
34768;DHT22;21755;43.608;1.236;2023-02-01T18:55:04;5.50;99.90
34768;DHT22;21755;43.608;1.236;2023-02-01T18:57:30;5.50;99.90